Airfield :
LOGIN :

Register | Disclaimer

   EN    FR    IT 

 










Legend :    VFR   Marginal VFR   IFR   Intensive IFR   Very Intensive IFR
Visi :
Ceiling :
>= 8 km
>= 3000ft
5 to 8 km
1000 to 3000 ft
1500m to 5 km
500 to 1000 ft
800 to 1500m
200 to 500 ft
< 800m
< 200 ft
Symbols :   Thunderstorms  Fog  Heavy snow  Heavy precipitations  Wind > 20 kt
SIGMETs :     Misc.  Thunderstorms  Icing  Turbulence  Mountain Waves  Volcanic Ashes







- Airport Elevation : 63 ft
- IATA code : BZM


EHWO - Woensdrecht Airbase

CURRENT METAR :
  • 181355Z AUTO 07014KT 040V130 9999 NCD 22/03 Q1022 BLU

EXPIRED METARs :
  • 181338Z AUTO 08013KT 060V130 9999 NCD 22/04 Q1023 BLU
  • 181255Z AUTO 09013KT 060V140 9999 NCD 21/03 Q1023 BLU 09010KT CAVOK
  • 181225Z AUTO 08016KT 050V120 9999 NCD 21/04 Q1023 BLU 09010KT CAVOK
  • 181155Z AUTO 08015KT 050V120 9999 NCD 21/03 Q1023 BLU 09010KT CAVOK
  • 181125Z AUTO 08014KT 040V130 9999 NCD 21/02 Q1023 BLU 09010KT CAVOK

TAF TAF EHWO
Valid from the 18 at 09:00 until the 18 at 21:00 UTC


180829Z 1809/1821 09009KT CAVOK
TEMPO 1810/1817 08012G23KT
No reported NOTAMs for that airfield.



MET'MAP, your aeronautical weather chart ! - Copyright ORBIFLY December 2007 - Disclaimer

ORBIFLY MET'MAP TEAM :

Programming & Development : Alexandra Zaïnal
Concept & Development : Baudouin d'Aumeries
Co-Development & Prog : Marc-Olivier Méhu
Technical & hardware support : Manuel Goepfert

Contact : metmap@orbifly.com




SOURCES & CREDITS :

   NOAA